Terminal Aerodrome Forecast
Issued by NWS Detroit/Pontiac, MI

Home | Current Version | Previous Version | Text Only | Print | Product List | Glossary On
Versions: 1 2 3 4 5 6 7 8 9 10 11 12 13 14 15 16 17 18 19 20 21 22 23 24 25 26 27 28 29 30
000
FTUS43 KDTX 310529
TAFDTW
TAF
KDTW 310529Z 3106/0112 00000KT 1SM BR SKC
     FM311000 00000KT 3/4SM BR BKN005
     FM311300 VRB03KT 3SM BR SCT015
     FM311600 25005KT P6SM FEW045=

USA.gov is the U.S. government's official web portal to all federal, state and local government web resources and services.